sensor_id;sensor_type;location;lat;lon;timestamp;P1;durP1;ratioP1;P2;durP2;ratioP2
31728;SDS011;18309;43.658;1.312;2023-04-03T00:01:13;6.55;;;2.13;;
31728;SDS011;18309;43.658;1.312;2023-04-03T00:03:39;8.25;;;2.70;;
31728;SDS011;18309;43.658;1.312;2023-04-03T00:06:06;13.63;;;2.55;;
31728;SDS011;18309;43.658;1.312;2023-04-03T00:08:33;11.48;;;2.15;;
31728;SDS011;18309;43.658;1.312;2023-04-03T00:11:00;7.93;;;2.45;;
31728;SDS011;18309;43.658;1.312;2023-04-03T00:13:25;7.35;;;2.35;;
31728;SDS011;18309;43.658;1.312;2023-04-03T00:15:51;8.63;;;2.17;;
31728;SDS011;18309;43.658;1.312;2023-04-03T00:18:17;4.03;;;1.70;;
31728;SDS011;18309;43.658;1.312;2023-04-03T00:20:43;5.80;;;2.63;;
31728;SDS011;18309;43.658;1.312;2023-04-03T00:23:09;7.40;;;2.33;;
31728;SDS011;18309;43.658;1.312;2023-04-03T00:25:35;7.15;;;2.30;;
31728;SDS011;18309;43.658;1.312;2023-04-03T00:28:01;15.68;;;2.50;;
31728;SDS011;18309;43.658;1.312;2023-04-03T00:30:27;6.65;;;2.65;;
31728;SDS011;18309;43.658;1.312;2023-04-03T00:32:53;11.32;;;2.45;;
31728;SDS011;18309;43.658;1.312;2023-04-03T00:35:19;9.48;;;2.78;;
31728;SDS011;18309;43.658;1.312;2023-04-03T00:37:46;9.43;;;2.67;;
31728;SDS011;18309;43.658;1.312;2023-04-03T00:40:13;9.27;;;2.33;;
31728;SDS011;18309;43.658;1.312;2023-04-03T00:42:42;7.85;;;2.58;;
31728;SDS011;18309;43.658;1.312;2023-04-03T00:47:48;10.70;;;2.63;;
31728;SDS011;18309;43.658;1.312;2023-04-03T00:50:13;10.60;;;2.55;;
31728;SDS011;18309;43.658;1.312;2023-04-03T00:52:40;5.07;;;2.47;;
31728;SDS011;18309;43.658;1.312;2023-04-03T00:55:06;24.30;;;2.35;;
31728;SDS011;18309;43.658;1.312;2023-04-03T00:57:34;7.75;;;2.03;;
31728;SDS011;18309;43.658;1.312;2023-04-03T01:00:02;10.75;;;2.15;;
31728;SDS011;18309;43.658;1.312;2023-04-03T01:02:37;11.85;;;2.53;;
31728;SDS011;18309;43.658;1.312;2023-04-03T01:05:05;9.55;;;2.83;;
31728;SDS011;18309;43.658;1.312;2023-04-03T01:07:32;4.55;;;2.15;;
31728;SDS011;18309;43.658;1.312;2023-04-03T01:10:04;11.95;;;2.83;;
31728;SDS011;18309;43.658;1.312;2023-04-03T01:12:40;10.00;;;2.88;;
31728;SDS011;18309;43.658;1.312;2023-04-03T01:15:09;8.60;;;2.97;;
31728;SDS011;18309;43.658;1.312;2023-04-03T01:17:47;6.15;;;2.47;;
31728;SDS011;18309;43.658;1.312;2023-04-03T01:25:42;5.82;;;2.28;;
31728;SDS011;18309;43.658;1.312;2023-04-03T01:28:22;6.38;;;2.63;;
31728;SDS011;18309;43.658;1.312;2023-04-03T01:33:33;8.93;;;2.30;;
31728;SDS011;18309;43.658;1.312;2023-04-03T01:35:59;9.13;;;2.67;;
31728;SDS011;18309;43.658;1.312;2023-04-03T01:38:25;8.32;;;2.72;;
31728;SDS011;18309;43.658;1.312;2023-04-03T01:40:56;6.07;;;2.27;;
31728;SDS011;18309;43.658;1.312;2023-04-03T01:43:22;9.57;;;2.35;;
31728;SDS011;18309;43.658;1.312;2023-04-03T01:45:48;7.93;;;2.80;;
31728;SDS011;18309;43.658;1.312;2023-04-03T01:48:15;8.23;;;2.53;;
31728;SDS011;18309;43.658;1.312;2023-04-03T01:50:41;7.20;;;2.30;;
31728;SDS011;18309;43.658;1.312;2023-04-03T01:53:07;11.38;;;2.40;;
31728;SDS011;18309;43.658;1.312;2023-04-03T01:55:32;10.30;;;2.85;;
31728;SDS011;18309;43.658;1.312;2023-04-03T01:57:58;6.28;;;2.40;;
31728;SDS011;18309;43.658;1.312;2023-04-03T02:00:24;4.68;;;2.50;;
31728;SDS011;18309;43.658;1.312;2023-04-03T02:02:49;9.45;;;2.80;;
31728;SDS011;18309;43.658;1.312;2023-04-03T02:05:15;5.72;;;2.55;;
31728;SDS011;18309;43.658;1.312;2023-04-03T02:07:41;12.45;;;3.22;;
31728;SDS011;18309;43.658;1.312;2023-04-03T02:10:07;7.75;;;2.70;;
31728;SDS011;18309;43.658;1.312;2023-04-03T02:12:33;8.20;;;2.70;;
31728;SDS011;18309;43.658;1.312;2023-04-03T02:14:58;9.85;;;2.83;;
31728;SDS011;18309;43.658;1.312;2023-04-03T02:17:24;6.25;;;2.55;;
31728;SDS011;18309;43.658;1.312;2023-04-03T02:19:50;7.13;;;2.70;;
31728;SDS011;18309;43.658;1.312;2023-04-03T02:22:15;13.23;;;2.95;;
31728;SDS011;18309;43.658;1.312;2023-04-03T02:24:42;7.45;;;2.78;;
31728;SDS011;18309;43.658;1.312;2023-04-03T02:27:08;8.23;;;2.90;;
31728;SDS011;18309;43.658;1.312;2023-04-03T02:29:34;9.55;;;2.85;;
31728;SDS011;18309;43.658;1.312;2023-04-03T02:32:00;8.40;;;2.92;;
31728;SDS011;18309;43.658;1.312;2023-04-03T02:34:26;5.80;;;2.47;;
31728;SDS011;18309;43.658;1.312;2023-04-03T02:36:51;6.45;;;2.47;;
31728;SDS011;18309;43.658;1.312;2023-04-03T02:39:17;9.73;;;2.70;;
31728;SDS011;18309;43.658;1.312;2023-04-03T02:41:43;5.25;;;2.33;;
31728;SDS011;18309;43.658;1.312;2023-04-03T02:44:09;3.47;;;2.17;;
31728;SDS011;18309;43.658;1.312;2023-04-03T02:46:35;4.20;;;1.98;;
31728;SDS011;18309;43.658;1.312;2023-04-03T02:49:02;5.75;;;2.50;;
31728;SDS011;18309;43.658;1.312;2023-04-03T02:51:28;5.15;;;2.05;;
31728;SDS011;18309;43.658;1.312;2023-04-03T02:53:53;8.90;;;2.83;;
31728;SDS011;18309;43.658;1.312;2023-04-03T02:56:19;4.53;;;2.20;;
31728;SDS011;18309;43.658;1.312;2023-04-03T02:58:45;7.78;;;2.75;;
31728;SDS011;18309;43.658;1.312;2023-04-03T03:01:11;12.68;;;3.30;;
31728;SDS011;18309;43.658;1.312;2023-04-03T03:03:37;10.95;;;2.60;;
31728;SDS011;18309;43.658;1.312;2023-04-03T03:08:33;6.85;;;2.42;;
31728;SDS011;18309;43.658;1.312;2023-04-03T03:10:59;4.95;;;2.92;;
31728;SDS011;18309;43.658;1.312;2023-04-03T03:13:25;4.13;;;2.58;;
31728;SDS011;18309;43.658;1.312;2023-04-03T03:15:51;7.50;;;2.45;;
31728;SDS011;18309;43.658;1.312;2023-04-03T03:18:16;4.85;;;2.35;;
31728;SDS011;18309;43.658;1.312;2023-04-03T03:20:42;5.40;;;2.88;;
31728;SDS011;18309;43.658;1.312;2023-04-03T03:23:08;9.45;;;2.97;;
31728;SDS011;18309;43.658;1.312;2023-04-03T03:25:37;6.72;;;2.88;;
31728;SDS011;18309;43.658;1.312;2023-04-03T03:28:04;10.90;;;2.43;;
31728;SDS011;18309;43.658;1.312;2023-04-03T03:30:30;8.90;;;3.00;;
31728;SDS011;18309;43.658;1.312;2023-04-03T03:32:55;7.93;;;2.85;;
31728;SDS011;18309;43.658;1.312;2023-04-03T03:35:21;8.02;;;2.92;;
31728;SDS011;18309;43.658;1.312;2023-04-03T03:37:47;6.75;;;2.90;;
31728;SDS011;18309;43.658;1.312;2023-04-03T03:40:13;5.85;;;3.03;;
31728;SDS011;18309;43.658;1.312;2023-04-03T03:42:39;4.78;;;2.42;;
31728;SDS011;18309;43.658;1.312;2023-04-03T03:45:05;4.03;;;2.33;;
31728;SDS011;18309;43.658;1.312;2023-04-03T03:47:31;9.30;;;3.00;;
31728;SDS011;18309;43.658;1.312;2023-04-03T03:49:57;7.90;;;2.75;;
31728;SDS011;18309;43.658;1.312;2023-04-03T03:52:22;6.10;;;2.95;;
31728;SDS011;18309;43.658;1.312;2023-04-03T03:54:48;6.32;;;2.53;;
31728;SDS011;18309;43.658;1.312;2023-04-03T03:57:14;5.28;;;2.60;;
31728;SDS011;18309;43.658;1.312;2023-04-03T03:59:40;5.03;;;2.28;;
31728;SDS011;18309;43.658;1.312;2023-04-03T04:02:07;6.97;;;3.05;;
31728;SDS011;18309;43.658;1.312;2023-04-03T04:04:33;6.28;;;2.55;;
31728;SDS011;18309;43.658;1.312;2023-04-03T04:06:58;5.43;;;2.40;;
31728;SDS011;18309;43.658;1.312;2023-04-03T04:09:25;6.18;;;3.08;;
31728;SDS011;18309;43.658;1.312;2023-04-03T04:11:51;5.80;;;2.70;;
31728;SDS011;18309;43.658;1.312;2023-04-03T04:14:18;9.40;;;3.30;;
31728;SDS011;18309;43.658;1.312;2023-04-03T04:16:45;7.85;;;2.78;;
31728;SDS011;18309;43.658;1.312;2023-04-03T04:19:14;5.07;;;2.58;;
31728;SDS011;18309;43.658;1.312;2023-04-03T04:21:41;7.30;;;3.20;;
31728;SDS011;18309;43.658;1.312;2023-04-03T04:24:07;6.47;;;2.70;;
31728;SDS011;18309;43.658;1.312;2023-04-03T04:26:33;7.28;;;2.90;;
31728;SDS011;18309;43.658;1.312;2023-04-03T04:28:59;13.02;;;3.58;;
31728;SDS011;18309;43.658;1.312;2023-04-03T04:31:24;9.77;;;3.45;;
31728;SDS011;18309;43.658;1.312;2023-04-03T04:33:51;3.47;;;2.60;;
31728;SDS011;18309;43.658;1.312;2023-04-03T04:36:17;7.40;;;3.40;;
31728;SDS011;18309;43.658;1.312;2023-04-03T04:38:43;7.28;;;2.70;;
31728;SDS011;18309;43.658;1.312;2023-04-03T04:41:08;6.95;;;2.95;;
31728;SDS011;18309;43.658;1.312;2023-04-03T04:43:34;8.32;;;3.33;;
31728;SDS011;18309;43.658;1.312;2023-04-03T04:46:09;9.45;;;3.78;;
31728;SDS011;18309;43.658;1.312;2023-04-03T04:48:39;6.47;;;2.75;;
31728;SDS011;18309;43.658;1.312;2023-04-03T04:51:05;6.97;;;2.97;;
31728;SDS011;18309;43.658;1.312;2023-04-03T04:53:31;5.25;;;2.60;;
31728;SDS011;18309;43.658;1.312;2023-04-03T04:55:57;9.73;;;2.67;;
31728;SDS011;18309;43.658;1.312;2023-04-03T04:58:22;10.65;;;3.28;;
31728;SDS011;18309;43.658;1.312;2023-04-03T05:00:48;5.90;;;3.28;;
31728;SDS011;18309;43.658;1.312;2023-04-03T05:03:14;10.77;;;3.20;;
31728;SDS011;18309;43.658;1.312;2023-04-03T05:05:40;4.55;;;3.00;;
31728;SDS011;18309;43.658;1.312;2023-04-03T05:08:06;9.68;;;3.40;;
31728;SDS011;18309;43.658;1.312;2023-04-03T05:10:33;9.73;;;3.35;;
31728;SDS011;18309;43.658;1.312;2023-04-03T05:12:59;7.20;;;2.95;;
31728;SDS011;18309;43.658;1.312;2023-04-03T05:15:25;7.97;;;3.80;;
31728;SDS011;18309;43.658;1.312;2023-04-03T05:17:50;7.35;;;3.05;;
31728;SDS011;18309;43.658;1.312;2023-04-03T05:20:18;8.48;;;3.38;;
31728;SDS011;18309;43.658;1.312;2023-04-03T05:22:43;5.97;;;3.13;;
31728;SDS011;18309;43.658;1.312;2023-04-03T05:25:09;7.32;;;3.58;;
31728;SDS011;18309;43.658;1.312;2023-04-03T05:27:35;10.52;;;3.13;;
31728;SDS011;18309;43.658;1.312;2023-04-03T05:30:01;11.50;;;3.58;;
31728;SDS011;18309;43.658;1.312;2023-04-03T05:32:27;8.73;;;3.83;;
31728;SDS011;18309;43.658;1.312;2023-04-03T05:34:53;6.22;;;2.88;;
31728;SDS011;18309;43.658;1.312;2023-04-03T05:37:19;7.90;;;3.55;;
31728;SDS011;18309;43.658;1.312;2023-04-03T05:39:45;10.45;;;3.55;;
31728;SDS011;18309;43.658;1.312;2023-04-03T05:42:11;8.95;;;3.40;;
31728;SDS011;18309;43.658;1.312;2023-04-03T05:44:37;9.48;;;3.67;;
31728;SDS011;18309;43.658;1.312;2023-04-03T05:47:03;7.28;;;3.25;;
31728;SDS011;18309;43.658;1.312;2023-04-03T05:49:29;6.20;;;3.38;;
31728;SDS011;18309;43.658;1.312;2023-04-03T05:51:56;5.85;;;3.00;;
31728;SDS011;18309;43.658;1.312;2023-04-03T05:54:23;8.52;;;3.00;;
31728;SDS011;18309;43.658;1.312;2023-04-03T05:56:51;10.85;;;3.80;;
31728;SDS011;18309;43.658;1.312;2023-04-03T05:59:17;8.35;;;3.67;;
31728;SDS011;18309;43.658;1.312;2023-04-03T06:01:43;8.02;;;3.60;;
31728;SDS011;18309;43.658;1.312;2023-04-03T06:04:09;5.60;;;2.80;;
31728;SDS011;18309;43.658;1.312;2023-04-03T06:07:09;8.20;;;3.08;;
31728;SDS011;18309;43.658;1.312;2023-04-03T06:09:28;7.50;;;2.95;;
31728;SDS011;18309;43.658;1.312;2023-04-03T06:11:54;13.75;;;3.15;;
31728;SDS011;18309;43.658;1.312;2023-04-03T06:14:24;10.07;;;3.50;;
31728;SDS011;18309;43.658;1.312;2023-04-03T06:16:50;4.82;;;2.83;;
31728;SDS011;18309;43.658;1.312;2023-04-03T06:19:17;5.82;;;2.75;;
31728;SDS011;18309;43.658;1.312;2023-04-03T06:21:43;6.78;;;3.03;;
31728;SDS011;18309;43.658;1.312;2023-04-03T06:24:09;10.65;;;3.92;;
31728;SDS011;18309;43.658;1.312;2023-04-03T06:26:37;10.32;;;4.00;;
31728;SDS011;18309;43.658;1.312;2023-04-03T06:29:03;7.43;;;3.33;;
31728;SDS011;18309;43.658;1.312;2023-04-03T06:31:29;10.90;;;2.95;;
31728;SDS011;18309;43.658;1.312;2023-04-03T06:33:54;8.63;;;3.20;;
31728;SDS011;18309;43.658;1.312;2023-04-03T06:36:21;5.35;;;2.95;;
31728;SDS011;18309;43.658;1.312;2023-04-03T06:38:47;6.20;;;3.08;;
31728;SDS011;18309;43.658;1.312;2023-04-03T06:41:13;7.82;;;3.17;;
31728;SDS011;18309;43.658;1.312;2023-04-03T06:43:41;9.93;;;3.55;;
31728;SDS011;18309;43.658;1.312;2023-04-03T06:46:11;6.40;;;3.42;;
31728;SDS011;18309;43.658;1.312;2023-04-03T06:48:41;9.93;;;4.13;;
31728;SDS011;18309;43.658;1.312;2023-04-03T06:51:42;10.57;;;4.13;;
31728;SDS011;18309;43.658;1.312;2023-04-03T06:54:01;11.43;;;4.25;;
31728;SDS011;18309;43.658;1.312;2023-04-03T06:56:29;17.40;;;5.53;;
31728;SDS011;18309;43.658;1.312;2023-04-03T06:58:55;8.65;;;4.05;;
31728;SDS011;18309;43.658;1.312;2023-04-03T07:01:22;9.75;;;3.85;;
31728;SDS011;18309;43.658;1.312;2023-04-03T07:03:51;9.77;;;3.78;;
31728;SDS011;18309;43.658;1.312;2023-04-03T07:06:17;7.53;;;4.10;;
31728;SDS011;18309;43.658;1.312;2023-04-03T07:08:44;10.82;;;3.90;;
31728;SDS011;18309;43.658;1.312;2023-04-03T07:11:11;9.30;;;3.95;;
31728;SDS011;18309;43.658;1.312;2023-04-03T07:13:37;9.10;;;4.68;;
31728;SDS011;18309;43.658;1.312;2023-04-03T07:16:04;9.27;;;4.22;;
31728;SDS011;18309;43.658;1.312;2023-04-03T07:18:31;8.68;;;4.53;;
31728;SDS011;18309;43.658;1.312;2023-04-03T07:20:57;13.32;;;5.07;;
31728;SDS011;18309;43.658;1.312;2023-04-03T07:23:23;45.53;;;9.20;;
31728;SDS011;18309;43.658;1.312;2023-04-03T07:25:50;55.83;;;10.60;;
31728;SDS011;18309;43.658;1.312;2023-04-03T07:28:17;39.58;;;9.50;;
31728;SDS011;18309;43.658;1.312;2023-04-03T07:30:48;22.35;;;6.53;;
31728;SDS011;18309;43.658;1.312;2023-04-03T07:33:16;41.58;;;8.20;;
31728;SDS011;18309;43.658;1.312;2023-04-03T07:35:43;14.68;;;5.05;;
31728;SDS011;18309;43.658;1.312;2023-04-03T07:38:11;12.90;;;4.88;;
31728;SDS011;18309;43.658;1.312;2023-04-03T07:40:38;15.90;;;4.97;;
31728;SDS011;18309;43.658;1.312;2023-04-03T07:43:05;20.48;;;5.07;;
31728;SDS011;18309;43.658;1.312;2023-04-03T07:45:31;8.07;;;4.70;;
31728;SDS011;18309;43.658;1.312;2023-04-03T07:47:59;11.95;;;4.60;;
31728;SDS011;18309;43.658;1.312;2023-04-03T07:50:25;8.52;;;4.00;;
31728;SDS011;18309;43.658;1.312;2023-04-03T07:52:52;14.70;;;5.07;;
31728;SDS011;18309;43.658;1.312;2023-04-03T07:55:19;16.20;;;5.00;;
31728;SDS011;18309;43.658;1.312;2023-04-03T07:57:45;12.52;;;4.75;;
31728;SDS011;18309;43.658;1.312;2023-04-03T08:00:11;10.45;;;4.63;;
31728;SDS011;18309;43.658;1.312;2023-04-03T08:02:37;12.18;;;4.72;;
31728;SDS011;18309;43.658;1.312;2023-04-03T08:05:03;14.18;;;5.35;;
31728;SDS011;18309;43.658;1.312;2023-04-03T08:07:29;24.90;;;7.00;;
31728;SDS011;18309;43.658;1.312;2023-04-03T08:09:55;47.35;;;8.40;;
31728;SDS011;18309;43.658;1.312;2023-04-03T08:12:21;15.13;;;4.80;;
31728;SDS011;18309;43.658;1.312;2023-04-03T08:14:46;15.43;;;4.53;;
31728;SDS011;18309;43.658;1.312;2023-04-03T08:17:12;18.05;;;4.90;;
31728;SDS011;18309;43.658;1.312;2023-04-03T08:19:39;16.23;;;4.90;;
31728;SDS011;18309;43.658;1.312;2023-04-03T08:22:05;12.73;;;4.43;;
31728;SDS011;18309;43.658;1.312;2023-04-03T08:24:32;9.50;;;4.35;;
31728;SDS011;18309;43.658;1.312;2023-04-03T08:26:58;13.43;;;5.00;;
31728;SDS011;18309;43.658;1.312;2023-04-03T08:29:24;10.05;;;3.78;;
31728;SDS011;18309;43.658;1.312;2023-04-03T08:31:50;10.43;;;3.40;;
31728;SDS011;18309;43.658;1.312;2023-04-03T08:34:16;7.50;;;3.35;;
31728;SDS011;18309;43.658;1.312;2023-04-03T08:36:42;11.32;;;3.95;;
31728;SDS011;18309;43.658;1.312;2023-04-03T08:39:08;12.15;;;4.32;;
31728;SDS011;18309;43.658;1.312;2023-04-03T08:41:36;11.55;;;4.05;;
31728;SDS011;18309;43.658;1.312;2023-04-03T08:46:39;10.05;;;3.53;;
31728;SDS011;18309;43.658;1.312;2023-04-03T08:49:22;10.48;;;2.97;;
31728;SDS011;18309;43.658;1.312;2023-04-03T08:51:53;10.13;;;3.90;;
31728;SDS011;18309;43.658;1.312;2023-04-03T08:54:36;15.57;;;3.58;;
31728;SDS011;18309;43.658;1.312;2023-04-03T08:57:09;13.13;;;2.92;;
31728;SDS011;18309;43.658;1.312;2023-04-03T08:59:37;9.10;;;3.58;;
31728;SDS011;18309;43.658;1.312;2023-04-03T09:02:21;10.68;;;3.88;;
31728;SDS011;18309;43.658;1.312;2023-04-03T09:04:52;10.27;;;3.03;;
31728;SDS011;18309;43.658;1.312;2023-04-03T09:07:42;11.00;;;3.05;;
31728;SDS011;18309;43.658;1.312;2023-04-03T09:10:08;5.82;;;2.80;;
31728;SDS011;18309;43.658;1.312;2023-04-03T09:12:49;16.73;;;6.55;;
31728;SDS011;18309;43.658;1.312;2023-04-03T09:15:24;9.35;;;3.22;;
31728;SDS011;18309;43.658;1.312;2023-04-03T09:18:03;11.30;;;3.97;;
31728;SDS011;18309;43.658;1.312;2023-04-03T09:23:26;10.65;;;3.00;;
31728;SDS011;18309;43.658;1.312;2023-04-03T09:28:38;9.85;;;3.20;;
31728;SDS011;18309;43.658;1.312;2023-04-03T09:31:20;12.23;;;3.20;;
31728;SDS011;18309;43.658;1.312;2023-04-03T09:33:48;12.82;;;3.40;;
31728;SDS011;18309;43.658;1.312;2023-04-03T09:39:09;8.15;;;2.67;;
31728;SDS011;18309;43.658;1.312;2023-04-03T09:41:55;17.70;;;4.25;;
31728;SDS011;18309;43.658;1.312;2023-04-03T09:44:24;15.65;;;3.30;;
31728;SDS011;18309;43.658;1.312;2023-04-03T09:49:17;7.90;;;2.67;;
31728;SDS011;18309;43.658;1.312;2023-04-03T09:51:44;13.07;;;3.08;;
31728;SDS011;18309;43.658;1.312;2023-04-03T09:54:32;8.95;;;2.58;;
31728;SDS011;18309;43.658;1.312;2023-04-03T09:57:12;7.90;;;2.38;;
31728;SDS011;18309;43.658;1.312;2023-04-03T10:04:56;7.43;;;2.17;;
31728;SDS011;18309;43.658;1.312;2023-04-03T10:07:30;9.40;;;2.30;;
31728;SDS011;18309;43.658;1.312;2023-04-03T10:10:03;12.27;;;2.45;;
31728;SDS011;18309;43.658;1.312;2023-04-03T10:12:43;7.45;;;2.38;;
31728;SDS011;18309;43.658;1.312;2023-04-03T10:15:16;7.15;;;1.95;;
31728;SDS011;18309;43.658;1.312;2023-04-03T10:18:00;7.22;;;2.08;;
31728;SDS011;18309;43.658;1.312;2023-04-03T10:20:48;4.50;;;1.90;;
31728;SDS011;18309;43.658;1.312;2023-04-03T10:23:39;8.45;;;2.58;;
31728;SDS011;18309;43.658;1.312;2023-04-03T10:34:26;5.47;;;1.63;;
31728;SDS011;18309;43.658;1.312;2023-04-03T10:56:55;9.10;;;1.70;;
31728;SDS011;18309;43.658;1.312;2023-04-03T10:59:35;3.75;;;1.52;;
31728;SDS011;18309;43.658;1.312;2023-04-03T11:02:24;5.93;;;1.80;;
31728;SDS011;18309;43.658;1.312;2023-04-03T11:11:16;4.55;;;2.13;;
31728;SDS011;18309;43.658;1.312;2023-04-03T11:13:50;4.38;;;1.50;;
31728;SDS011;18309;43.658;1.312;2023-04-03T11:16:24;10.07;;;1.65;;
31728;SDS011;18309;43.658;1.312;2023-04-03T11:18:54;5.50;;;1.20;;
31728;SDS011;18309;43.658;1.312;2023-04-03T11:21:32;8.40;;;1.70;;
31728;SDS011;18309;43.658;1.312;2023-04-03T11:24:05;5.00;;;1.80;;
31728;SDS011;18309;43.658;1.312;2023-04-03T11:26:36;4.90;;;1.45;;
31728;SDS011;18309;43.658;1.312;2023-04-03T11:29:09;14.25;;;1.92;;
31728;SDS011;18309;43.658;1.312;2023-04-03T11:34:34;4.63;;;1.67;;
31728;SDS011;18309;43.658;1.312;2023-04-03T11:37:10;7.03;;;1.42;;
31728;SDS011;18309;43.658;1.312;2023-04-03T11:39:37;5.97;;;1.23;;
31728;SDS011;18309;43.658;1.312;2023-04-03T11:44:40;9.70;;;1.95;;
31728;SDS011;18309;43.658;1.312;2023-04-03T11:47:07;3.78;;;1.42;;
31728;SDS011;18309;43.658;1.312;2023-04-03T12:05:50;5.10;;;1.20;;
31728;SDS011;18309;43.658;1.312;2023-04-03T12:16:26;5.30;;;1.45;;
31728;SDS011;18309;43.658;1.312;2023-04-03T12:19:01;6.80;;;1.40;;
31728;SDS011;18309;43.658;1.312;2023-04-03T12:22:13;5.60;;;1.83;;
31728;SDS011;18309;43.658;1.312;2023-04-03T12:24:33;6.95;;;1.63;;
31728;SDS011;18309;43.658;1.312;2023-04-03T12:29:45;5.75;;;1.55;;
31728;SDS011;18309;43.658;1.312;2023-04-03T12:40:55;5.72;;;1.50;;
31728;SDS011;18309;43.658;1.312;2023-04-03T12:46:20;7.53;;;1.92;;
31728;SDS011;18309;43.658;1.312;2023-04-03T12:48:51;6.75;;;1.48;;
31728;SDS011;18309;43.658;1.312;2023-04-03T12:54:16;5.32;;;1.20;;
31728;SDS011;18309;43.658;1.312;2023-04-03T12:56:48;4.60;;;1.38;;
31728;SDS011;18309;43.658;1.312;2023-04-03T12:59:20;4.43;;;1.30;;
31728;SDS011;18309;43.658;1.312;2023-04-03T13:01:55;5.10;;;0.93;;
31728;SDS011;18309;43.658;1.312;2023-04-03T13:04:22;8.40;;;1.52;;
31728;SDS011;18309;43.658;1.312;2023-04-03T13:06:48;6.25;;;1.50;;
31728;SDS011;18309;43.658;1.312;2023-04-03T13:09:19;4.75;;;1.38;;
31728;SDS011;18309;43.658;1.312;2023-04-03T13:14:37;4.18;;;1.20;;
31728;SDS011;18309;43.658;1.312;2023-04-03T13:17:10;8.75;;;1.30;;
31728;SDS011;18309;43.658;1.312;2023-04-03T13:19:39;5.78;;;1.38;;
31728;SDS011;18309;43.658;1.312;2023-04-03T13:25:04;1.98;;;0.93;;
31728;SDS011;18309;43.658;1.312;2023-04-03T13:27:31;7.15;;;1.35;;
31728;SDS011;18309;43.658;1.312;2023-04-03T13:29:58;7.03;;;1.38;;
31728;SDS011;18309;43.658;1.312;2023-04-03T13:32:26;9.57;;;1.60;;
31728;SDS011;18309;43.658;1.312;2023-04-03T13:34:54;7.07;;;1.80;;
31728;SDS011;18309;43.658;1.312;2023-04-03T13:37:21;5.50;;;1.48;;
31728;SDS011;18309;43.658;1.312;2023-04-03T13:42:32;4.53;;;1.52;;
31728;SDS011;18309;43.658;1.312;2023-04-03T13:47:45;7.45;;;2.17;;
31728;SDS011;18309;43.658;1.312;2023-04-03T13:52:43;7.10;;;2.00;;
31728;SDS011;18309;43.658;1.312;2023-04-03T14:02:57;6.28;;;1.70;;
31728;SDS011;18309;43.658;1.312;2023-04-03T14:05:23;4.00;;;1.40;;
31728;SDS011;18309;43.658;1.312;2023-04-03T14:07:50;10.18;;;1.95;;
31728;SDS011;18309;43.658;1.312;2023-04-03T14:10:17;9.27;;;1.90;;
31728;SDS011;18309;43.658;1.312;2023-04-03T14:12:43;6.88;;;1.75;;
31728;SDS011;18309;43.658;1.312;2023-04-03T14:15:18;7.03;;;1.90;;
31728;SDS011;18309;43.658;1.312;2023-04-03T14:17:50;7.32;;;1.65;;
31728;SDS011;18309;43.658;1.312;2023-04-03T14:20:17;9.30;;;2.10;;
31728;SDS011;18309;43.658;1.312;2023-04-03T14:22:46;10.97;;;1.87;;
31728;SDS011;18309;43.658;1.312;2023-04-03T14:25:13;8.30;;;1.88;;
31728;SDS011;18309;43.658;1.312;2023-04-03T14:27:44;8.50;;;2.35;;
31728;SDS011;18309;43.658;1.312;2023-04-03T14:30:15;4.88;;;1.90;;
31728;SDS011;18309;43.658;1.312;2023-04-03T14:32:44;7.28;;;1.45;;
31728;SDS011;18309;43.658;1.312;2023-04-03T14:35:12;3.58;;;1.27;;
31728;SDS011;18309;43.658;1.312;2023-04-03T14:37:39;8.15;;;1.75;;
31728;SDS011;18309;43.658;1.312;2023-04-03T14:40:05;6.75;;;1.60;;
31728;SDS011;18309;43.658;1.312;2023-04-03T14:42:33;5.88;;;1.77;;
31728;SDS011;18309;43.658;1.312;2023-04-03T14:45:02;4.53;;;1.50;;
31728;SDS011;18309;43.658;1.312;2023-04-03T14:47:30;7.07;;;1.42;;
31728;SDS011;18309;43.658;1.312;2023-04-03T14:49:59;5.97;;;1.55;;
31728;SDS011;18309;43.658;1.312;2023-04-03T14:52:29;6.68;;;1.42;;
31728;SDS011;18309;43.658;1.312;2023-04-03T14:54:56;5.43;;;1.40;;
31728;SDS011;18309;43.658;1.312;2023-04-03T14:57:23;5.43;;;1.10;;
31728;SDS011;18309;43.658;1.312;2023-04-03T14:59:51;6.80;;;1.67;;
31728;SDS011;18309;43.658;1.312;2023-04-03T15:02:36;6.75;;;1.33;;
31728;SDS011;18309;43.658;1.312;2023-04-03T15:05:06;3.97;;;1.38;;
31728;SDS011;18309;43.658;1.312;2023-04-03T15:07:34;7.47;;;1.90;;
31728;SDS011;18309;43.658;1.312;2023-04-03T15:12:40;5.85;;;2.15;;
31728;SDS011;18309;43.658;1.312;2023-04-03T15:15:07;9.88;;;1.50;;
31728;SDS011;18309;43.658;1.312;2023-04-03T15:17:33;5.65;;;1.27;;
31728;SDS011;18309;43.658;1.312;2023-04-03T15:20:01;7.43;;;1.75;;
31728;SDS011;18309;43.658;1.312;2023-04-03T15:22:27;7.18;;;2.05;;
31728;SDS011;18309;43.658;1.312;2023-04-03T15:24:53;7.15;;;1.58;;
31728;SDS011;18309;43.658;1.312;2023-04-03T15:27:19;5.55;;;2.10;;
31728;SDS011;18309;43.658;1.312;2023-04-03T15:29:46;5.10;;;1.30;;
31728;SDS011;18309;43.658;1.312;2023-04-03T15:32:12;3.28;;;1.50;;
31728;SDS011;18309;43.658;1.312;2023-04-03T15:34:38;6.07;;;1.50;;
31728;SDS011;18309;43.658;1.312;2023-04-03T15:37:04;5.53;;;1.55;;
31728;SDS011;18309;43.658;1.312;2023-04-03T15:39:30;5.43;;;1.08;;
31728;SDS011;18309;43.658;1.312;2023-04-03T15:41:56;3.85;;;1.20;;
31728;SDS011;18309;43.658;1.312;2023-04-03T15:44:30;2.90;;;0.70;;
31728;SDS011;18309;43.658;1.312;2023-04-03T15:46:57;6.90;;;1.52;;
31728;SDS011;18309;43.658;1.312;2023-04-03T15:49:23;5.35;;;1.38;;
31728;SDS011;18309;43.658;1.312;2023-04-03T15:51:49;5.57;;;1.75;;
31728;SDS011;18309;43.658;1.312;2023-04-03T15:54:15;7.20;;;1.33;;
31728;SDS011;18309;43.658;1.312;2023-04-03T15:56:41;7.93;;;1.10;;
31728;SDS011;18309;43.658;1.312;2023-04-03T15:59:07;8.38;;;1.80;;
31728;SDS011;18309;43.658;1.312;2023-04-03T16:01:32;5.35;;;1.17;;
31728;SDS011;18309;43.658;1.312;2023-04-03T16:03:59;4.82;;;1.58;;
31728;SDS011;18309;43.658;1.312;2023-04-03T16:06:25;7.93;;;1.40;;
31728;SDS011;18309;43.658;1.312;2023-04-03T16:08:51;4.05;;;1.48;;
31728;SDS011;18309;43.658;1.312;2023-04-03T16:13:50;9.60;;;1.50;;
31728;SDS011;18309;43.658;1.312;2023-04-03T16:16:15;4.30;;;1.20;;
31728;SDS011;18309;43.658;1.312;2023-04-03T16:18:42;4.53;;;1.50;;
31728;SDS011;18309;43.658;1.312;2023-04-03T16:21:08;5.05;;;1.20;;
31728;SDS011;18309;43.658;1.312;2023-04-03T16:23:35;7.63;;;2.25;;
31728;SDS011;18309;43.658;1.312;2023-04-03T16:26:01;9.13;;;1.27;;
31728;SDS011;18309;43.658;1.312;2023-04-03T16:28:26;5.68;;;1.10;;
31728;SDS011;18309;43.658;1.312;2023-04-03T16:30:52;4.45;;;1.40;;
31728;SDS011;18309;43.658;1.312;2023-04-03T16:33:18;3.80;;;1.48;;
31728;SDS011;18309;43.658;1.312;2023-04-03T16:35:46;3.22;;;0.90;;
31728;SDS011;18309;43.658;1.312;2023-04-03T16:38:13;4.25;;;1.45;;
31728;SDS011;18309;43.658;1.312;2023-04-03T16:40:40;6.05;;;1.27;;
31728;SDS011;18309;43.658;1.312;2023-04-03T16:43:05;3.75;;;0.90;;
31728;SDS011;18309;43.658;1.312;2023-04-03T16:45:31;3.58;;;0.98;;
31728;SDS011;18309;43.658;1.312;2023-04-03T16:47:57;3.65;;;0.80;;
31728;SDS011;18309;43.658;1.312;2023-04-03T16:50:23;4.15;;;1.10;;
31728;SDS011;18309;43.658;1.312;2023-04-03T16:52:48;3.65;;;0.95;;
31728;SDS011;18309;43.658;1.312;2023-04-03T16:55:15;3.13;;;0.75;;
31728;SDS011;18309;43.658;1.312;2023-04-03T16:57:41;2.58;;;0.88;;
31728;SDS011;18309;43.658;1.312;2023-04-03T17:00:06;5.15;;;1.13;;
31728;SDS011;18309;43.658;1.312;2023-04-03T17:02:33;2.70;;;0.90;;
31728;SDS011;18309;43.658;1.312;2023-04-03T17:04:59;3.83;;;1.20;;
31728;SDS011;18309;43.658;1.312;2023-04-03T17:07:25;3.05;;;1.50;;
31728;SDS011;18309;43.658;1.312;2023-04-03T17:09:51;6.00;;;1.27;;
31728;SDS011;18309;43.658;1.312;2023-04-03T17:12:18;6.53;;;1.30;;